createdAt,value
2023-01-29T00:04:44.705Z,76.57
2023-01-29T00:09:47.319Z,76.46
2023-01-29T00:14:49.460Z,76.67
2023-01-29T00:19:52.056Z,76.64
2023-01-29T00:24:55.053Z,76.66
2023-01-29T00:30:16.716Z,76.49
2023-01-29T00:35:20.462Z,76.28
2023-01-29T00:40:25.167Z,76.22
2023-01-29T00:45:28.493Z,76.51
2023-01-29T00:50:32.771Z,76.24
2023-01-29T00:55:35.662Z,76.22
2023-01-29T01:00:38.606Z,76.32
2023-01-29T01:05:43.343Z,76.28
2023-01-29T01:10:46.744Z,76.39
2023-01-29T01:15:49.809Z,76.49
2023-01-29T01:21:00.393Z,76.51
2023-01-29T01:26:10.215Z,76.19
2023-01-29T01:31:14.258Z,76.39
2023-01-29T01:36:18.327Z,76.44
2023-01-29T01:41:22.831Z,76.40
2023-01-29T01:46:27.918Z,76.59
2023-01-29T01:51:34.776Z,76.61
2023-01-29T01:56:46.404Z,76.79
2023-01-29T02:01:54.678Z,76.99
2023-01-29T02:07:18.315Z,76.77
2023-01-29T02:12:21.485Z,76.79
2023-01-29T02:17:24.361Z,76.93
2023-01-29T02:22:56.111Z,76.72
2023-01-29T02:28:25.341Z,76.81
2023-01-29T02:33:48.675Z,76.54
2023-01-29T02:39:30.508Z,76.52
2023-01-29T02:44:53.013Z,76.60
2023-01-29T02:50:05.188Z,76.52
2023-01-29T02:55:18.518Z,76.58
2023-01-29T03:00:26.500Z,76.60
2023-01-29T03:05:33.571Z,76.66
2023-01-29T03:11:03.437Z,76.90
2023-01-29T03:16:36.632Z,76.72
2023-01-29T03:21:51.743Z,76.97
2023-01-29T03:27:15.872Z,76.87
2023-01-29T03:32:22.536Z,76.89
2023-01-29T03:37:37.012Z,76.94
2023-01-29T03:42:45.796Z,76.86
2023-01-29T03:48:17.850Z,77.06
2023-01-29T03:53:44.296Z,77.15
2023-01-29T03:58:50.880Z,77.13
2023-01-29T04:04:12.703Z,77.09
2023-01-29T04:09:25.129Z,76.83
2023-01-29T04:14:28.021Z,76.61
2023-01-29T04:19:30.521Z,76.92
2023-01-29T04:24:33.626Z,76.81
2023-01-29T04:30:00.337Z,76.79
2023-01-29T04:35:25.152Z,76.99
2023-01-29T04:40:37.852Z,76.90
2023-01-29T04:46:08.455Z,77.04
2023-01-29T04:51:32.412Z,77.09
2023-01-29T04:56:46.785Z,76.88
2023-01-29T05:01:50.389Z,77.12
2023-01-29T05:06:52.979Z,77.19
2023-01-29T05:11:55.481Z,77.43
2023-01-29T05:17:01.435Z,77.38
2023-01-29T05:22:06.400Z,77.59
2023-01-29T05:27:49.937Z,77.47
2023-01-29T05:32:52.978Z,77.46
2023-01-29T05:37:56.710Z,77.47
2023-01-29T05:43:00.145Z,77.52
2023-01-29T05:48:02.973Z,77.41
2023-01-29T05:53:06.327Z,77.61
2023-01-29T05:58:09.014Z,77.57
2023-01-29T06:03:12.218Z,77.38
2023-01-29T06:08:15.383Z,77.37
2023-01-29T06:13:19.333Z,77.35
2023-01-29T06:18:21.442Z,77.04
2023-01-29T06:23:24.746Z,77.17
2023-01-29T06:28:27.701Z,77.05
2023-01-29T06:33:31.084Z,77.10
2023-01-29T06:38:35.391Z,77.11
2023-01-29T06:43:39.639Z,77.31
2023-01-29T06:48:43.012Z,77.34
2023-01-29T06:53:46.711Z,77.75
2023-01-29T06:58:50.757Z,77.68
2023-01-29T07:03:54.058Z,77.76
2023-01-29T07:08:57.598Z,77.69
2023-01-29T07:14:01.248Z,77.62
2023-01-29T07:19:04.208Z,77.65
2023-01-29T07:24:08.449Z,77.69
2023-01-29T07:29:11.217Z,77.63
2023-01-29T07:34:15.033Z,77.80
2023-01-29T07:39:18.385Z,77.64
2023-01-29T07:44:22.363Z,77.76
2023-01-29T07:49:25.504Z,77.45
2023-01-29T07:54:28.373Z,77.26
2023-01-29T07:59:32.184Z,77.64
2023-01-29T08:04:34.767Z,77.49
2023-01-29T08:09:38.208Z,77.22
2023-01-29T08:14:40.903Z,77.25
2023-01-29T08:19:42.997Z,76.84
2023-01-29T08:24:53.938Z,76.79
2023-01-29T08:30:03.628Z,76.87
2023-01-29T08:35:06.591Z,76.63
2023-01-29T08:40:11.248Z,76.26
2023-01-29T08:45:14.276Z,76.19
2023-01-29T08:50:18.316Z,76.19
2023-01-29T08:55:21.776Z,76.40
2023-01-29T09:00:25.821Z,76.17
2023-01-29T09:05:28.658Z,75.98
2023-01-29T09:10:30.995Z,76.12
2023-01-29T09:15:33.091Z,75.88
2023-01-29T09:20:37.644Z,76.12
2023-01-29T09:25:43.689Z,76.17
2023-01-29T09:30:47.363Z,76.31
2023-01-29T09:35:49.695Z,76.30
2023-01-29T09:41:07.264Z,76.38
2023-01-29T09:46:40.888Z,76.15
2023-01-29T09:52:12.825Z,76.34
2023-01-29T09:57:51.974Z,76.55
2023-01-29T10:03:17.640Z,77.05
2023-01-29T10:08:51.204Z,76.73
2023-01-29T10:14:16.180Z,77.09
2023-01-29T10:19:49.770Z,76.72
2023-01-29T10:25:07.115Z,76.84
2023-01-29T10:30:27.650Z,77.06
2023-01-29T10:35:36.887Z,77.05
2023-01-29T10:40:48.040Z,77.49
2023-01-29T10:46:36.796Z,77.57
2023-01-29T10:52:13.872Z,77.53
2023-01-29T10:57:56.886Z,78.16
2023-01-29T11:03:27.019Z,78.25
2023-01-29T11:08:39.134Z,78.42
2023-01-29T11:14:07.677Z,78.44
2023-01-29T11:19:10.997Z,78.72
2023-01-29T11:24:18.963Z,79.12
2023-01-29T11:29:32.107Z,79.03
2023-01-29T11:34:37.945Z,79.25
2023-01-29T11:39:47.846Z,79.42
2023-01-29T11:44:52.123Z,79.57
2023-01-29T11:49:55.929Z,79.65
2023-01-29T11:55:04.434Z,79.97
2023-01-29T12:00:22.256Z,80.20
2023-01-29T12:05:26.529Z,79.89
2023-01-29T12:10:37.341Z,79.94
2023-01-29T12:15:43.618Z,79.67
2023-01-29T12:20:51.913Z,80.23
2023-01-29T12:26:20.119Z,80.46
2023-01-29T12:31:41.215Z,80.21
2023-01-29T12:37:11.521Z,80.36
2023-01-29T12:42:23.591Z,80.37
2023-01-29T12:48:09.384Z,80.01
2023-01-29T12:53:32.723Z,80.53
2023-01-29T12:58:39.190Z,80.92
2023-01-29T13:03:59.531Z,80.97
2023-01-29T13:09:08.280Z,81.25
2023-01-29T13:14:23.470Z,81.16
2023-01-29T13:19:33.334Z,81.17
2023-01-29T13:24:44.372Z,81.75
2023-01-29T13:29:53.042Z,81.71
2023-01-29T13:35:05.824Z,81.51
2023-01-29T13:40:22.783Z,81.61
2023-01-29T13:45:42.363Z,81.55
2023-01-29T13:50:45.998Z,82.08
2023-01-29T13:55:49.456Z,82.46
2023-01-29T14:00:52.336Z,82.10
2023-01-29T14:05:55.493Z,82.49
2023-01-29T14:11:15.157Z,82.10
2023-01-29T14:16:18.535Z,82.57
2023-01-29T14:21:39.214Z,82.74
2023-01-29T14:26:47.899Z,82.74
2023-01-29T14:31:58.947Z,82.86
2023-01-29T14:37:30.245Z,83.28
2023-01-29T14:42:45.244Z,83.28
2023-01-29T14:47:48.569Z,83.10
2023-01-29T14:52:53.803Z,83.50
2023-01-29T14:57:58.137Z,83.64
2023-01-29T15:03:04.359Z,83.29
2023-01-29T15:08:20.383Z,83.68
2023-01-29T15:13:52.588Z,83.88
2023-01-29T15:19:04.773Z,83.54
2023-01-29T15:24:13.916Z,83.44
2023-01-29T15:29:25.790Z,83.86
2023-01-29T15:34:28.912Z,83.80
2023-01-29T15:39:31.713Z,83.92
2023-01-29T15:44:35.041Z,83.83
2023-01-29T15:49:40.146Z,83.78
2023-01-29T15:54:46.105Z,83.81
2023-01-29T15:59:52.573Z,84.23
2023-01-29T16:04:56.269Z,83.76
2023-01-29T16:10:00.513Z,83.90
2023-01-29T16:15:06.145Z,84.03
2023-01-29T16:20:31.949Z,83.95
2023-01-29T16:25:39.249Z,84.04
2023-01-29T16:30:43.435Z,84.35
2023-01-29T16:35:54.180Z,84.46
2023-01-29T16:41:26.440Z,84.40
2023-01-29T16:46:36.962Z,84.05
2023-01-29T16:51:40.706Z,84.69
2023-01-29T16:56:48.637Z,84.33
2023-01-29T17:01:56.633Z,84.66
2023-01-29T17:07:03.375Z,84.75
2023-01-29T17:12:10.590Z,84.75
2023-01-29T17:21:43.437Z,84.90
2023-01-29T17:26:50.216Z,84.91
2023-01-29T17:31:57.092Z,84.46
2023-01-29T17:37:02.961Z,84.74
2023-01-29T17:42:14.381Z,84.67
2023-01-29T17:47:19.856Z,84.72
2023-01-29T17:52:27.703Z,84.53
2023-01-29T17:57:33.919Z,84.56
2023-01-29T18:02:39.607Z,84.76
2023-01-29T18:07:47.588Z,84.83
2023-01-29T18:12:53.589Z,84.84
2023-01-29T18:17:59.419Z,84.90
2023-01-29T18:23:07.390Z,85.11
2023-01-29T18:28:19.965Z,85.43
2023-01-29T18:33:26.698Z,85.03
2023-01-29T18:38:38.441Z,85.37
2023-01-29T18:43:48.264Z,85.35
2023-01-29T18:48:54.350Z,85.59
2023-01-29T18:54:01.254Z,85.40
2023-01-29T18:59:08.132Z,85.64
2023-01-29T19:04:15.769Z,85.82
2023-01-29T19:09:21.866Z,85.70
2023-01-29T19:14:28.119Z,85.86
2023-01-29T19:19:36.028Z,86.04
2023-01-29T19:24:42.613Z,85.94
2023-01-29T19:29:48.010Z,85.75
2023-01-29T19:34:53.271Z,85.66
2023-01-29T19:39:58.270Z,85.80
2023-01-29T19:45:03.030Z,85.57
2023-01-29T19:50:12.365Z,85.97
2023-01-29T19:55:18.907Z,85.93
2023-01-29T20:00:24.274Z,85.93
2023-01-29T20:05:28.830Z,85.89
2023-01-29T20:10:33.768Z,85.72
2023-01-29T20:15:39.370Z,85.76
2023-01-29T20:20:51.563Z,85.89
2023-01-29T20:26:01.570Z,86.67
2023-01-29T20:31:09.568Z,86.40
2023-01-29T20:36:15.407Z,86.26
2023-01-29T20:41:20.091Z,86.63
2023-01-29T20:46:24.595Z,86.35
2023-01-29T20:51:31.424Z,86.35
2023-01-29T20:56:42.243Z,86.40
2023-01-29T21:01:48.351Z,86.20
2023-01-29T21:06:54.835Z,86.33
2023-01-29T21:12:01.767Z,86.55
2023-01-29T21:17:06.826Z,86.59
2023-01-29T21:22:11.409Z,86.43
2023-01-29T21:27:16.202Z,86.42
2023-01-29T21:32:21.671Z,86.32
2023-01-29T21:37:27.131Z,86.29
2023-01-29T21:42:50.364Z,86.29
2023-01-29T21:47:55.313Z,86.40
2023-01-29T21:53:00.017Z,86.42
2023-01-29T21:58:05.016Z,86.45
2023-01-29T22:03:08.952Z,86.43
2023-01-29T22:08:12.442Z,86.37
2023-01-29T22:13:17.051Z,86.57
2023-01-29T22:18:24.311Z,86.41
2023-01-29T22:23:30.263Z,86.70
2023-01-29T22:28:36.215Z,86.65
2023-01-29T22:33:40.648Z,86.79
2023-01-29T22:38:46.089Z,86.57
2023-01-29T22:43:53.005Z,86.57
2023-01-29T22:48:57.907Z,86.80
2023-01-29T22:54:02.594Z,86.85
2023-01-29T22:59:07.417Z,86.91
2023-01-29T23:04:12.181Z,87.18
2023-01-29T23:09:16.830Z,86.97
2023-01-29T23:14:24.707Z,86.85
2023-01-29T23:19:30.746Z,87.33
2023-01-29T23:24:35.301Z,87.24
2023-01-29T23:29:39.056Z,87.02
2023-01-29T23:34:43.099Z,86.94
2023-01-29T23:39:48.110Z,87.12
2023-01-29T23:44:56.569Z,86.81
2023-01-29T23:50:02.002Z,86.65
2023-01-29T23:55:07.648Z,87.01
